Terminal Aerodrome Forecast
Issued by NWS Louisville, KY

Home | Current Version | Previous Version | Graphics & Text | Print | Product List | Glossary On
Versions: 1 2 3 4 5 6 7 8 9 10 11 12
000
FTUS43 KLMK 211700
TAFBWG
TAF
KBWG 211724Z 2118/2218 10007KT P6SM FEW040
     FM220300 14003KT P6SM BKN040
     FM221200 19013G20KT P6SM BKN080=

USA.gov is the U.S. government's official web portal to all federal, state and local government web resources and services.